YSSY METAR and TAF | Updated Today

YSSY METAR

Sydney Kingsford Smith International Airport

Observation time: 14 min. ago

YSSY 251900Z 32005KT CAVOK 13/11 Q1020

Need help? Read our tutorial on how to read METARs or read the parsed version below.

Sydney Kingsford Smith International Airport (YSSY) METAR

  • Weather conditions on Wed, 25 May 2022 19:00:00 +0000 (14 min. ago):
  • Present conditions: Dry
  • Clouds: Clear skies
  • Visibility: Greater than 10 km
  • Wind: 320 degrees at 5 knots
  • Temperature: 13 celsius
  • Dew point: 11 celsius
  • Pressure: 1020 millibars
  • Remarks: None


Useful to know...

YSSY TAF

Sydney Kingsford Smith International Airport

TAF AMD YSSY 251905Z 2519/2700 32005KT CAVOK FM260400 03008KT 9999 SCT025 FM261000 33006KT CAVOK
Observation time: 9 min. ago
Need help? Read our tutorial on how to read TAFs or read the parsed version below.

Parsed version of TAF for Sydney Kingsford Smith International Airport (YSSY)

  • From 25 May at 19:00 UTC, to day 27 of the month at 00:00 UTC
  • Visibility: Greater than 10 km
  • Wind: 320 degrees at 5
  • From day 26 of the month at 04:00 UTC
  • Clouds: Scattered at 762 meters
  • Visibility: Greater than 10 km
  • Wind: 30 degrees at 8
  • From day 26 of the month at 10:00 UTC
  • Visibility: Greater than 10 km
  • Wind: 330 degrees at 6